Have a Safe July 4th! 

Flight Track Log - Related Links

Times and Time Zones

All times are in EDT time to prevent confusion due to time zone crossing. See the EJA922 flight status page for this flight to view local times or setup timezone preferences in your user account.

Time Position Orientation Groundspeed Altitude Reporting Facility
EDT Latitude Longitude Course Direction KTS MPH feet Rate Location/Type
Tue 05:32:05 PM 34.1500 -118.3667 59° Northeast 214 246 3,400  Level Southern California TRACON
Tue 05:33:03 PM 34.1517 -118.4278 272° West 234 269 5,400 2,300 Climbing Los Angeles Center
Tue 05:34:05 PM 34.2303 -118.4206 North 251 289 8,000 2,129 Climbing Los Angeles Center
Tue 05:35:07 PM 34.3061 -118.3911 18° North 280 322 9,800 1,645 Climbing Los Angeles Center
Tue 05:36:09 PM 34.3894 -118.3597 17° North 309 356 11,400 1,500 Climbing Los Angeles Center
Tue 05:37:00 PM 34.5771 -118.1292 59° Northeast  Level FlightAware Approximate
Tue 05:37:11 PM 34.4783 -118.3108 24° Northeast 346 398 12,900  Level Los Angeles Center
Tue 05:38:13 PM 34.5411 -118.2114 53° Northeast 368 423 14,500 1,577 Climbing Los Angeles Center
Tue 05:39:28 PM 34.6094 -118.0992 53° Northeast 377 434 16,500 1,620 Climbing Los Angeles Center
Tue 05:40:30 PM 34.6431 -117.9561 74° East 375 432 18,200 1,452 Climbing Los Angeles Center
Tue 05:41:32 PM 34.6703 -117.8300 75° East 387 445 19,500 1,210 Climbing Los Angeles Center
Tue 05:42:34 PM 34.7000 -117.7033 74° East 393 452 20,700 1,210 Climbing Los Angeles Center
Tue 05:43:36 PM 34.7372 -117.5458 74° East 406 467 22,000 1,258 Climbing Los Angeles Center
Tue 05:44:38 PM 34.7683 -117.4131 74° East 412 474 23,300 1,104 Climbing Los Angeles Center
Tue 05:45:41 PM 34.7986 -117.2789 75° East 415 478 24,300 960 Climbing Los Angeles Center
Tue 05:46:43 PM 34.8303 -117.1433 74° East 421 484 25,300 1,065 Climbing Los Angeles Center
Tue 05:47:45 PM 34.8700 -116.9769 74° East 428 493 26,500 968 Climbing Los Angeles Center
Tue 05:48:47 PM 34.9017 -116.8361 75° East 433 498 27,300 919 Climbing Los Angeles Center
Tue 05:49:49 PM 34.9350 -116.6928 74° East 439 505 28,400 1,065 Climbing Los Angeles Center
Tue 05:50:51 PM 34.9811 -116.5542 68° East 445 512 29,500 976 Climbing Los Angeles Center
Tue 05:51:52 PM 35.0503 -116.4656 46° Northeast 453 521 30,400 1,016 Climbing Los Angeles Center
Tue 05:52:55 PM 35.1572 -116.3317 46° Northeast 457 526 31,600 1,152 Climbing Los Angeles Center
Tue 05:53:57 PM 35.2658 -116.1950 46° Northeast 466 536 32,800 1,113 Climbing Los Angeles Center
Tue 05:54:59 PM 35.3569 -116.0803 46° Northeast 471 542 33,900 1,065 Climbing Los Angeles Center
Tue 05:56:01 PM 35.4494 -115.9642 46° Northeast 476 548 35,000 1,171 Climbing Los Angeles Center
Tue 05:57:02 PM 35.5397 -115.8525 45° Northeast 476 548 36,300 1,512 Climbing Los Angeles Center
Tue 05:58:04 PM 35.6489 -115.7119 46° Northeast 473 544 38,100 1,548 Climbing Los Angeles Center
Tue 05:59:06 PM 35.7389 -115.5972 46° Northeast 469 540 39,500 1,104 Climbing Los Angeles Center
Tue 06:00:09 PM 35.8283 -115.4828 46° Northeast 465 535 40,400 720 Climbing Los Angeles Center
Tue 06:01:11 PM 35.9192 -115.3669 46° Northeast 471 542 41,000 290 Climbing Los Angeles Center
Tue 06:02:13 PM 36.0114 -115.2489 46° Northeast 479 551 41,000  Level Los Angeles Center
Tue 06:03:14 PM 36.1028 -115.0833 56° Northeast 491 565 41,000  Level Los Angeles Center
Tue 06:04:16 PM 36.1517 -114.9242 69° East 497 572 41,000  Level Los Angeles Center
Tue 06:05:18 PM 36.2011 -114.7644 69° East 499 574 41,000  Level Los Angeles Center
Tue 06:06:20 PM 36.2497 -114.6025 70° East 502 578 41,000  Level Los Angeles Center
Tue 06:07:22 PM 36.2975 -114.4411 70° East 501 577 41,000  Level Los Angeles Center
Tue 06:08:24 PM 36.3461 -114.2794 69° East 502 578 41,000  Level Los Angeles Center
Tue 06:09:26 PM 36.4058 -114.0867 69° East 500 575 41,000  Level Los Angeles Center
Tue 06:10:40 PM 36.4633 -113.8925 70° East 499 574 41,000  Level Los Angeles Center
Tue 06:11:42 PM 36.5108 -113.7311 70° East 499 574 41,000  Level Los Angeles Center
Tue 06:12:44 PM 36.5628 -113.5544 70° East 495 570 41,000  Level Los Angeles Center
Tue 06:13:45 PM 36.6097 -113.3958 70° East 493 567 41,000  Level Los Angeles Center
Tue 06:14:47 PM 36.6561 -113.2342 70° East 497 572 41,000  Level Los Angeles Center
Tue 06:15:49 PM 36.7025 -113.0719 70° East 499 574 41,000  Level Los Angeles Center
Tue 06:16:51 PM 36.7489 -112.9119 70° East 496 571 41,000  Level Los Angeles Center
Tue 06:17:53 PM 36.7953 -112.7497 70° East 499 574 41,000  Level Los Angeles Center
Tue 06:18:55 PM 36.8514 -112.5539 70° East 501 577 41,000  Level Los Angeles Center
Tue 06:19:56 PM 36.8978 -112.3906 70° East 503 579 41,000  Level Los Angeles Center
Tue 06:21:10 PM 36.9442 -112.2267 70° East 504 580 41,000  Level Los Angeles Center
Tue 06:22:13 PM 36.9978 -112.0325 71° East 496 571 41,000  Level Los Angeles Center
Tue 06:23:14 PM 37.0436 -111.8706 70° East 497 572 41,000  Level Los Angeles Center
Tue 06:24:16 PM 37.0872 -111.7089 71° East 495 570 41,000  Level Los Angeles Center
Tue 06:25:05 PM 37.1350 -111.5442 70° East 498 573 41,000  Level Denver Center
Tue 06:26:07 PM 37.1747 -111.3828 73° East 493 567 41,000  Level Denver Center
Tue 06:27:09 PM 37.2206 -111.2189 71° East 499 574 41,000  Level Denver Center
Tue 06:28:11 PM 37.2639 -111.0553 72° East 498 573 41,000  Level Denver Center
Tue 06:29:13 PM 37.3081 -110.8936 71° East 493 567 41,000  Level Denver Center
Tue 06:30:16 PM 37.3533 -110.7283 71° East 498 573 41,000  Level Denver Center
Tue 06:31:18 PM 37.4033 -110.5322 72° East 495 570 41,000  Level Denver Center
Tue 06:32:20 PM 37.4447 -110.3672 72° East 496 571 41,000  Level Denver Center
Tue 06:33:22 PM 37.4875 -110.2019 72° East 496 571 41,000  Level Denver Center
Tue 06:34:24 PM 37.5361 -110.0167 72° East 497 572 41,000  Level Denver Center
Tue 06:35:26 PM 37.5756 -109.8622 72° East 489 563 41,000  Level Denver Center
Tue 06:36:28 PM 37.6156 -109.7044 72° East 492 566 41,000 339 Level Denver Center
Tue 06:37:30 PM 37.6617 -109.5225 72° East 487 560 41,700 774 Climbing Denver Center
Tue 06:38:32 PM 37.7000 -109.3697 72° East 477 549 42,600 629 Climbing Denver Center
Tue 06:39:34 PM 37.7442 -109.1925 72° East 473 544 43,000 194 Climbing Denver Center
Tue 06:40:36 PM 37.7825 -109.0378 73° East 479 551 43,000  Level Denver Center
Tue 06:41:38 PM 37.8333 -108.8611 70° East 477 549 43,000  Level Denver Center
Tue 06:42:40 PM 37.8839 -108.7114 67° East 481 554 43,000  Level Denver Center
Tue 06:43:42 PM 37.9439 -108.5431 66° East 474 545 43,000  Level Denver Center
Tue 06:44:44 PM 37.9947 -108.3958 66° East 476 548 43,000  Level Denver Center
Tue 06:45:47 PM 38.0536 -108.2244 66° East 474 545 43,000  Level Denver Center
Tue 06:46:49 PM 38.1011 -108.0850 67° East 475 547 43,000  Level Denver Center
Tue 06:47:51 PM 38.1586 -107.9139 67° East 475 547 43,000  Level Denver Center
Tue 06:48:53 PM 38.2078 -107.7689 67° East 470 541 43,000  Level Denver Center
Tue 06:49:55 PM 38.2650 -107.6000 67° East 468 539 43,000  Level Denver Center
Tue 06:50:57 PM 38.3136 -107.4550 67° East 468 539 43,000  Level Denver Center
Tue 06:51:59 PM 38.3700 -107.2856 67° East 467 537 43,000  Level Denver Center
Tue 06:53:01 PM 38.4200 -107.1361 67° East 462 532 43,000  Level Denver Center
Tue 06:54:03 PM 38.4775 -106.9908 63° Northeast 462 532 43,000  Level Denver Center
Tue 06:55:05 PM 38.5478 -106.8583 56° Northeast 454 522 43,000  Level Denver Center
Tue 06:56:07 PM 38.6172 -106.7258 56° Northeast 451 519 43,000  Level Denver Center
Tue 06:57:09 PM 38.6956 -106.5625 58° Northeast 450 518 43,000  Level Denver Center
Tue 06:58:11 PM 38.7497 -106.4178 64° Northeast 451 519 43,000  Level Denver Center
Tue 06:59:15 PM 38.8025 -106.2747 65° Northeast 448 516 43,000  Level Denver Center
Tue 07:00:17 PM 38.8597 -106.1208 64° Northeast 442 509 43,000  Level Denver Center
Tue 07:01:19 PM 38.9122 -105.9778 65° Northeast 444 511 43,000  Level Denver Center
Tue 07:02:21 PM 38.9642 -105.8350 65° Northeast 444 511 43,000  Level Denver Center
Tue 07:03:23 PM 39.0172 -105.6928 64° Northeast 442 509 43,000  Level Denver Center
Tue 07:04:25 PM 39.0786 -105.5219 65° Northeast 441 507 43,000  Level Denver Center
Tue 07:05:27 PM 39.1297 -105.3786 65° Northeast 442 509 43,000  Level Denver Center
Tue 07:06:29 PM 39.1833 -105.2358 64° Northeast 445 512 43,000  Level Denver Center
Tue 07:07:31 PM 39.2350 -105.0892 66° East 453 521 43,000  Level Denver Center
Tue 07:08:33 PM 39.2869 -104.9450 65° Northeast 444 511 43,000  Level Denver Center
Tue 07:09:35 PM 39.3392 -104.7964 66° East 454 522 43,000  Level Denver Center
Tue 07:10:37 PM 39.4011 -104.6189 66° East 460 529 43,000  Level Denver Center
Tue 07:11:39 PM 39.4522 -104.4725 66° East 457 526 43,000  Level Denver Center
Tue 07:12:41 PM 39.5039 -104.3250 66° East 457 526 43,000  Level Denver Center
Tue 07:13:43 PM 39.5547 -104.1775 66° East 452 520 43,000  Level Denver Center
Tue 07:14:45 PM 39.6172 -103.9986 66° East 455 524 43,000  Level Denver Center
Tue 07:15:47 PM 39.6678 -103.8486 66° East 454 522 43,000  Level Denver Center
Tue 07:16:49 PM 39.7197 -103.6997 66° East 449 517 43,000  Level Denver Center
Tue 07:17:51 PM 39.7714 -103.5483 66° East 458 527 43,000  Level Denver Center
Tue 07:18:53 PM 39.8222 -103.3956 67° East 462 532 43,000  Level Denver Center
Tue 07:19:55 PM 39.8833 -103.2122 66° East 464 534 43,000  Level Denver Center
Tue 07:20:58 PM 39.9361 -103.0581 66° East 465 535 43,000  Level Denver Center
Tue 07:22:00 PM 39.9872 -102.9028 67° East 469 540 43,000  Level Denver Center
Tue 07:23:02 PM 40.0381 -102.7458 67° East 471 542 43,000  Level Denver Center
Tue 07:24:04 PM 40.0928 -102.5844 66° East 472 543 43,000  Level Denver Center
Tue 07:25:06 PM 40.1492 -102.4069 67° East 474 545 43,000  Level Denver Center
Tue 07:26:08 PM 40.1989 -102.2556 67° East 475 547 43,000  Level Denver Center
Tue 07:27:10 PM 40.2564 -102.0769 67° East 477 549 43,000  Level Denver Center
Tue 07:28:12 PM 40.3067 -101.9247 67° East 475 547 43,000  Level Denver Center
Tue 07:29:14 PM 40.3631 -101.7453 68° East 477 549 43,000  Level Denver Center
Tue 07:30:16 PM 40.4106 -101.5911 68° East 477 549 43,000  Level Denver Center
Tue 07:31:18 PM 40.4675 -101.4128 67° East 475 547 43,000  Level Denver Center
Tue 07:32:20 PM 40.5161 -101.2589 67° East 476 548 43,000  Level Denver Center
Tue 07:33:22 PM 40.5711 -101.0783 68° East 479 551 43,000  Level Denver Center
Tue 07:34:24 PM 40.6192 -100.9228 68° East 482 555 43,000  Level Denver Center
Tue 07:35:26 PM 40.6753 -100.7408 68° East 485 558 43,000  Level Denver Center
Tue 07:36:28 PM 40.7236 -100.5856 68° East 489 563 43,000  Level Denver Center
Tue 07:37:31 PM 40.7789 -100.4039 68° East 481 554 43,000  Level Denver Center
Tue 07:38:33 PM 40.8264 -100.2478 68° East 483 556 43,000  Level Denver Center
Tue 07:39:35 PM 40.8817 -100.0636 68° East 484 557 43,000  Level Denver Center
Tue 07:40:37 PM 40.9286 -99.9061 68° East 483 556 43,000  Level Denver Center
Tue 07:41:39 PM 40.9781 -99.7389 69° East 485 558 43,000  Level Denver Center
Tue 07:42:41 PM 41.0269 -99.5742 68° East 482 555 43,000  Level Denver Center
Tue 07:43:43 PM 41.0758 -99.4072 69° East 484 557 43,000  Level Denver Center
Tue 07:44:45 PM 41.1342 -99.2050 69° East 487 560 43,000  Level Denver Center
Tue 07:45:47 PM 41.1844 -99.0306 69° East 485 558 43,000  Level Denver Center
Tue 07:46:49 PM 41.2314 -98.8703 69° East 488 562 43,000  Level Denver Center
Tue 07:47:25 PM 41.2553 -98.7897 68° East 493 567 43,000  Level Minneapolis Center
Tue 07:48:27 PM 41.3117 -98.5878 70° East 491 565 43,000  Level Minneapolis Center
Tue 07:49:41 PM 41.3589 -98.4147 70° East 489 563 43,000  Level Minneapolis Center
Tue 07:50:44 PM 41.4017 -98.2064 75° East 485 558 43,000  Level Minneapolis Center
Tue 07:51:58 PM 41.4358 -97.9950 78° East 490 564 43,000  Level Minneapolis Center
Tue 07:53:00 PM 41.4664 -97.8161 77° East 493 567 43,000  Level Minneapolis Center
Tue 07:54:02 PM 41.5011 -97.6019 78° East 493 567 43,000  Level Minneapolis Center
Tue 07:55:04 PM 41.5314 -97.4203 77° East 498 573 43,000  Level Minneapolis Center
Tue 07:56:06 PM 41.5594 -97.2392 78° East 499 574 43,000  Level Minneapolis Center
Tue 07:57:09 PM 41.5883 -97.0556 78° East 502 578 43,000  Level Minneapolis Center
Tue 07:58:11 PM 41.6169 -96.8736 78° East 500 575 43,000  Level Minneapolis Center
Tue 07:59:13 PM 41.6461 -96.6922 78° East 499 574 43,000  Level Minneapolis Center
Tue 08:00:15 PM 41.6731 -96.5089 79° East 499 574 43,000  Level Minneapolis Center
Tue 08:01:29 PM 41.7131 -96.2506 78° East 502 578 43,000  Level Minneapolis Center
Tue 08:02:31 PM 41.7394 -96.0658 79° East 500 575 43,000  Level Minneapolis Center
Tue 08:03:33 PM 41.7675 -95.8819 78° East 499 574 43,000  Level Minneapolis Center
Tue 08:04:35 PM 41.7931 -95.6997 79° East 496 571 43,000 -48 Level Minneapolis Center
Tue 08:05:37 PM 41.8192 -95.5167 79° East 497 572 42,900 -339 Descending Minneapolis Center
Tue 08:06:39 PM 41.8461 -95.3331 79° East 499 574 42,300 -726 Descending Minneapolis Center
Tue 08:07:41 PM 41.8728 -95.1461 79° East 504 580 41,400 -629 Descending Minneapolis Center
Tue 08:08:43 PM 41.8981 -94.9586 80° East 509 586 41,000 -194 Descending Minneapolis Center
Tue 08:09:45 PM 41.9278 -94.7339 80° East 507 583 41,000 -484 Level Minneapolis Center
Tue 08:10:47 PM 41.9481 -94.5842 80° East 508 585 40,000 -1,065 Descending Minneapolis Center
Tue 08:11:49 PM 41.9786 -94.3614 79° East 504 580 38,800 -1,065 Descending Minneapolis Center
Tue 08:12:51 PM 42.0036 -94.1756 80° East 503 579 37,800 -871 Descending Minneapolis Center
Tue 08:13:53 PM 42.0283 -93.9872 80° East 508 585 37,000 -387 Descending Minneapolis Center
Tue 08:14:55 PM 42.0536 -93.7936 80° East 505 581 37,000  Level Minneapolis Center
Tue 08:15:57 PM 42.0783 -93.6139 79° East 497 572 37,000  Level Minneapolis Center
Tue 08:17:00 PM 42.1058 -93.3964 80° East 496 571 37,000  Level Minneapolis Center
Tue 08:18:02 PM 42.1269 -93.2131 81° East 498 573 37,000  Level Minneapolis Center
Tue 08:19:04 PM 42.1492 -93.0303 81° East 500 575 37,000  Level Minneapolis Center
Tue 08:20:05 PM 42.1678 -92.8833 80° East 502 578 37,000  Level Minneapolis Center
Tue 08:21:08 PM 42.1942 -92.6628 81° East 503 579 37,000  Level Minneapolis Center
Tue 08:22:10 PM 42.2197 -92.4458 81° East 498 573 37,000  Level Minneapolis Center
Tue 08:23:11 PM 42.2400 -92.2694 81° East 491 565 37,000  Level Minneapolis Center
Tue 08:24:13 PM 42.2603 -92.0897 81° East 489 563 37,000 -97 Level Minneapolis Center
Tue 08:25:15 PM 42.2811 -91.9089 81° East 492 566 36,800 -677 Descending Minneapolis Center
Tue 08:26:17 PM 42.3047 -91.6892 82° East 498 573 35,600 -919 Descending Minneapolis Center
Tue 08:27:19 PM 42.3200 -91.5442 82° East 499 574 34,900 -823 Descending Minneapolis Center
Tue 08:28:21 PM 42.3408 -91.3486 82° East 456 525 33,900 -968 Descending Minneapolis Center
Tue 08:29:23 PM 42.3586 -91.1828 82° East 451 519 32,900 -871 Descending Minneapolis Center
Tue 08:30:25 PM 42.3756 -91.0161 82° East 453 521 32,100 -358 Descending Minneapolis Center
Tue 08:31:54 PM 42.4039 -90.7469 82° East 460 529 32,000 -119 Descending Chicago Center
Tue 08:32:56 PM 42.4200 -90.5764 83° East 463 533 31,800 -774 Descending Chicago Center
Tue 08:33:58 PM 42.4367 -90.4069 82° East 461 531 30,400 -1,500 Descending Chicago Center
Tue 08:35:00 PM 42.4550 -90.2042 83° East 458 527 28,700 -1,597 Descending Chicago Center
Tue 08:36:02 PM 42.4719 -90.0311 82° East 466 536 27,100 -823 Descending Chicago Center
Tue 08:37:04 PM 42.4903 -89.8572 82° East 462 532 27,000 -387 Descending Chicago Center
Tue 08:38:06 PM 42.5044 -89.6886 83° East 453 521 26,300 -1,500 Descending Chicago Center
Tue 08:39:08 PM 42.5228 -89.4961 83° East 444 511 23,900 -2,081 Descending Chicago Center
Tue 08:40:10 PM 42.5364 -89.3367 83° East 431 496 22,000 -1,839 Descending Chicago Center
Tue 08:41:12 PM 42.5494 -89.1864 83° East 409 471 20,100 -1,790 Descending Chicago Center
Tue 08:42:14 PM 42.5694 -89.0389 80° East 400 460 18,300 -1,790 Descending Chicago Center
Tue 08:43:16 PM 42.5958 -88.8953 76° East 394 453 16,400 -1,728 Descending Chicago Center
Tue 08:44:19 PM 42.6219 -88.7572 76° East 382 440 14,700 -1,790 Descending Chicago Center
Tue 08:45:20 PM 42.6494 -88.6031 76° East 364 419 12,700 -1,707 Descending Chicago Center
Tue 08:46:22 PM 42.6714 -88.4875 75° East 324 373 11,200 -1,355 Descending Chicago Center
Tue 08:47:24 PM 42.6906 -88.3792 76° East 301 346 9,900 -1,452 Descending Chicago Center
Tue 08:48:26 PM 42.6744 -88.2794 102° East 288 331 8,200 -1,694 Descending Chicago Center
Tue 08:49:28 PM 42.6211 -88.2056 134° Southeast 277 319 6,400 -2,032 Descending Chicago Center
Tue 08:50:30 PM 42.5344 -88.1700 163° South 278 320 4,000 -1,161 Descending Chicago Center
Tue 08:51:32 PM 42.4706 -88.1419 162° South 249 287 4,000  Level Chicago Center
Tue 08:52:34 PM 42.4097 -88.1222 167° South 231 266 4,000 -145 Level Chicago Center
Tue 08:53:36 PM 42.3508 -88.1047 168° South 220 253 3,700 -435 Descending Chicago Center
Tue 08:54:38 PM 42.3075 -88.0594 142° Southeast 200 230 3,100 -581 Descending Chicago Center
Tue 08:55:40 PM 42.3325 -88.0022 59° Northeast 190 219 2,500 -339 Descending Chicago Center
Tue 08:56:42 PM 42.3664 -87.9536 47° Northeast 179 206 2,400 -97 Descending Chicago Center

Login

Don't have an account? Register now (free) for customized features, flight alerts, and more!